Scroll down
FLIGHT INFORMATION
SAS Scandinavian Airlines

SAS1207

At Arrival Gate

ENGM
 ESNQ
DATE: 2019-12-07
GATE:  -
GATE DEPARTURE: 16:36
TAKEOFF: 16:44
DATE: 2019-12-07
GATE:  -
LANDING: 18:11
GATE ARRIVAL: 18:18
FLIGHT DATA
Crew: DOUGLAS MORLAN
Speed: 440 kts Altitude: 35000 ft
Stage Length: 517 nm
Route: 
Block Time: 1.7 Flight Time: 1.5
Fuel Used: 9123 LB
TRACK DATA
50000 FT1000 KT
AIRCRAFT INFORMATION
Aircraft Type: B738
Registration: LN-RCN
SELCAL:  MSN/LN: 28318 / 529
Operator: SAS SCANDINAVIAN AIRLINES
Flights: 11 Block Time: 17.7 Flight Time: 14.5
Fuel Used: 93415 LB
  • DEPARTURE INFORMATION
    Date: 2019-12-07
    Airport: ENGM
    Gate:  -
    Gate Departure: 16:36
    Takeoff: 16:44
    ARRIVAL INFORMATION
    Date: 2019-12-07
    Airport: ESNQ
    Gate:  -
    Landing: 18:11
    Gate Arrival: 18:18
  • FLIGHT DATA
    Crew: DOUGLAS MORLAN
    Speed: 440 kts Altitude: 35000 ft
    Stage Length: 279 nm
    Route: 
    Block Time: 1.7 Flight Time: 1.5
    Fuel Used: 9123 LB
  • AIRCRAFT INFORMATION
    Aircraft Type: B738
    Registration: LN-RCN
    SELCAL:  MSN/LN: 28318 / 529
    Operator: SAS Scandinavian Airlines
    Flights: 11 Block Time: 17.7 Flight Time: 14.5
    Fuel Used: 93415 LB

DATALINK LOG | Newest first | Current as of: 2020-09-28 18:56:01
LABEL SEQUENCE CONTENT Dn/Up
QD195018:18 5.9▼ Dn
QC110918:11▼ Dn
463237/OV AGMOL /TM 1731 /FL350 /TP B738 /SK SCT /TA -56 /WV 284/32 /RM ▼ Dn
2U2833ESNQ 071820Z AUTO 00000KT 2400 -SN BKN004/// OVC066/// M12/M13 Q0976▲ Up
2S2833ESNQ▼ Dn
QB440116:44▼ Dn
QA361016:36 15▼ Dn
2U0921ENGM 071650Z VRB04KT CAVOK M00/M05 Q0993 NOSIG▲ Up
2S0921ENGM▼ Dn
Q00525[LINK ACK]▲ Up
Q05927[LINK TEST]▼ Dn


AIRCRAFT HISTORY
FLIGHT DATE FLIGHT NO. ORIGIN DESTINATION ROUTE BLOCK TIME FLIGHT TIME FUEL USED (LB) PILOT
2020-09-24SAS35ESNU ESSA ESNU DEDIT SIPRI HMR ESSA1.20.95875BigSwede
2020-08-07SAS25ESNQ ESNU ESNQ TERPA KETEL ESNU10.86146BigSwede
2020-07-30SAS1044ESSA ESNQ ESSA SA551 SA564 SA709 SA710 SA855 LUMAX RESNA OSK RASEN REKMI OSKIR ITVAV VAGAS NQ704 NQ703 RW031.81.49293BigSwede
2020-06-27SAS414EKCH ESSA EKCH KEMAX NEXIL ROXEN DEKIK VEPIP BEDOS NEFYN MIKNA PELUP NILUG ESSA1.316605BigSwede
2020-02-20SAS1407ESSA EKCH 1.517235BigSwede
2020-01-24SAS1045ESNQ ESSA 1.81.47391BigSwede
2019-12-07SAS1207ENGM ESNQ 1.71.59123Douglas Morlan
2019-11-14SAS4431ENTC ENGM 2.5212569Kyle Rodgers
2019-11-14SAS4425ENSB ENTC 1.71.49089Kyle Rodgers
2019-11-14SAS4414ENTC ENSB 1.71.59499Kyle Rodgers
2019-11-14SAS4406ENGM ENTC 21.610589Kyle Rodgers